Time;durP1;ratioP1;P1;durP2;ratioP2;P2;SDS_P1;SDS_P2;PMS_P1;PMS_P2;Temp;Humidity;BMP_temperature;BMP_pressure;BME280_temperature;BME280_humidity;BME280_pressure;Samples;Min_cycle;Max_cycle;Signal;HPM_P1;HPM_P2
2024/01/27 00:01:09;;;;;;;98.93;94.73;;;3.10;99.90;;;;;;4975911;28;20959;-70
2024/01/27 00:03:36;;;;;;;105.10;100.03;;;3.10;99.90;;;;;;4981942;28;20507;-70
2024/01/27 00:06:04;;;;;;;101.37;96.90;;;3.10;99.90;;;;;;4995686;28;20472;-70
2024/01/27 00:08:31;;;;;;;97.87;93.40;;;3.10;99.90;;;;;;4990030;28;20462;-70
2024/01/27 00:10:57;;;;;;;100.37;95.20;;;3.10;99.90;;;;;;4984775;28;20464;-70
2024/01/27 00:13:24;;;;;;;103.87;99.23;;;3.10;99.90;;;;;;4995061;28;20495;-69
2024/01/27 00:15:54;;;;;;;97.77;93.57;;;3.20;99.90;;;;;;4994346;28;20486;-71
2024/01/27 00:18:21;;;;;;;111.23;106.20;;;3.10;99.90;;;;;;4995071;28;20945;-70
2024/01/27 00:20:47;;;;;;;137.40;131.20;;;3.00;99.90;;;;;;4994970;28;20467;-71
2024/01/27 00:23:16;;;;;;;154.90;147.73;;;2.90;99.90;;;;;;4975960;28;20488;-69
2024/01/27 00:25:42;;;;;;;183.87;176.57;;;2.80;99.90;;;;;;4975834;28;20462;-70
2024/01/27 00:28:09;;;;;;;192.93;185.67;;;2.70;99.90;;;;;;4975597;28;20458;-70
2024/01/27 00:30:36;;;;;;;240.90;231.80;;;2.60;99.90;;;;;;4975209;28;20841;-71
2024/01/27 00:33:03;;;;;;;247.53;237.80;;;2.70;99.90;;;;;;4993108;28;20849;-70
2024/01/27 00:35:30;;;;;;;279.40;268.90;;;2.60;99.90;;;;;;4995124;28;20577;-70
2024/01/27 00:37:56;;;;;;;266.30;255.70;;;2.60;99.90;;;;;;4994947;28;20456;-70
2024/01/27 00:40:24;;;;;;;303.17;291.10;;;2.50;99.90;;;;;;4994664;28;20482;-70
2024/01/27 00:42:51;;;;;;;323.13;311.17;;;2.30;99.90;;;;;;4994562;28;20469;-71
2024/01/27 00:45:18;;;;;;;373.97;358.93;;;2.30;99.90;;;;;;4994603;28;20451;-70
2024/01/27 00:47:45;;;;;;;382.00;365.63;;;2.20;99.90;;;;;;4994628;28;20466;-71
2024/01/27 00:50:12;;;;;;;399.83;382.33;;;2.30;99.90;;;;;;4986434;28;20946;-71
2024/01/27 00:52:38;;;;;;;400.73;383.33;;;2.30;99.90;;;;;;4994991;28;20479;-70
2024/01/27 00:55:06;;;;;;;388.53;371.90;;;2.30;99.90;;;;;;4976458;28;20573;-70
2024/01/27 00:57:34;;;;;;;419.97;400.90;;;2.20;99.90;;;;;;4981018;28;20457;-70
2024/01/27 01:00:01;;;;;;;436.33;415.80;;;2.00;99.90;;;;;;4994013;28;20818;-70
2024/01/27 01:02:28;;;;;;;457.23;435.97;;;1.90;99.90;;;;;;4981299;28;20489;-70
2024/01/27 01:04:55;;;;;;;488.93;463.63;;;1.80;99.90;;;;;;4974961;28;20976;-70
2024/01/27 01:07:22;;;;;;;488.50;463.23;;;1.70;99.90;;;;;;4979286;28;20496;-70
2024/01/27 01:09:49;;;;;;;509.50;482.07;;;1.70;99.90;;;;;;4994779;28;20459;-70
2024/01/27 01:12:16;;;;;;;537.13;507.67;;;1.60;99.90;;;;;;4994509;28;20478;-70
2024/01/27 01:14:44;;;;;;;544.77;514.07;;;1.60;99.90;;;;;;4994222;28;20498;-70
2024/01/27 01:17:11;;;;;;;547.37;517.77;;;1.50;99.90;;;;;;4991744;28;20536;-70
2024/01/27 01:19:38;;;;;;;579.70;546.03;;;1.30;99.90;;;;;;4974986;28;20486;-71
2024/01/27 01:22:05;;;;;;;616.30;579.00;;;1.30;99.90;;;;;;4974547;28;20474;-70
2024/01/27 01:24:32;;;;;;;635.10;593.83;;;1.40;99.90;;;;;;4974777;28;20462;-70
2024/01/27 01:26:59;;;;;;;642.93;600.83;;;1.40;99.90;;;;;;4975383;28;20458;-70
2024/01/27 01:29:26;;;;;;;662.73;620.10;;;1.30;99.90;;;;;;4994000;28;20840;-70
2024/01/27 01:31:54;;;;;;;669.97;625.60;;;1.30;99.90;;;;;;4993621;28;20486;-70
2024/01/27 01:34:21;;;;;;;684.20;638.07;;;1.30;99.90;;;;;;4981787;28;20950;-71
2024/01/27 01:36:48;;;;;;;707.93;659.33;;;1.20;99.90;;;;;;4974348;28;21015;-70
2024/01/27 01:39:15;;;;;;;740.80;690.87;;;1.30;99.90;;;;;;4974124;28;20544;-72
2024/01/27 01:41:42;;;;;;;744.43;694.77;;;1.20;99.90;;;;;;4989521;28;20484;-71
2024/01/27 01:44:09;;;;;;;768.77;717.57;;;1.30;99.90;;;;;;4983510;28;20465;-70
2024/01/27 01:46:36;;;;;;;784.77;733.17;;;1.30;99.90;;;;;;4974169;28;20494;-70
2024/01/27 01:49:05;;;;;;;794.13;741.37;;;1.50;99.90;;;;;;4974008;28;21027;-71
2024/01/27 01:51:32;;;;;;;795.40;743.53;;;1.50;99.90;;;;;;4974057;28;20454;-70
2024/01/27 01:54:00;;;;;;;796.53;744.47;;;1.60;99.90;;;;;;4983153;28;20476;-71
2024/01/27 01:56:26;;;;;;;805.50;752.80;;;1.50;99.90;;;;;;4993438;28;20969;-71
2024/01/27 01:58:55;;;;;;;807.97;755.77;;;1.50;99.90;;;;;;4993215;28;20825;-71
2024/01/27 02:01:22;;;;;;;812.97;761.13;;;1.50;99.90;;;;;;4993462;28;20838;-71
2024/01/27 02:03:54;;;;;;;836.63;783.43;;;1.50;99.90;;;;;;4993333;28;20834;-70
2024/01/27 02:06:22;;;;;;;839.57;785.70;;;1.60;99.90;;;;;;4985715;28;20511;-72
2024/01/27 02:08:49;;;;;;;848.97;795.83;;;1.60;99.90;;;;;;4977028;28;20458;-71
2024/01/27 02:11:16;;;;;;;849.40;796.90;;;1.60;99.90;;;;;;4981967;28;20453;-71
2024/01/27 02:13:43;;;;;;;845.70;793.70;;;1.70;99.90;;;;;;4973674;28;20496;-71
2024/01/27 02:16:10;;;;;;;835.37;786.23;;;1.70;99.90;;;;;;4973787;28;20523;-70
2024/01/27 02:18:37;;;;;;;830.23;780.27;;;1.70;99.90;;;;;;4987846;28;20908;-70
2024/01/27 02:21:04;;;;;;;839.80;789.80;;;1.70;99.90;;;;;;4974992;28;20842;-71
2024/01/27 02:23:32;;;;;;;842.37;792.37;;;1.70;99.90;;;;;;4986774;28;20481;-70
2024/01/27 02:26:00;;;;;;;833.83;783.97;;;1.70;99.90;;;;;;4984949;28;20492;-71
2024/01/27 02:28:31;;;;;;;830.10;781.23;;;1.60;99.90;;;;;;4992968;28;20462;-71
2024/01/27 02:30:59;;;;;;;842.57;791.73;;;1.70;99.90;;;;;;4976726;28;20458;-72
2024/01/27 02:33:26;;;;;;;853.13;802.97;;;1.60;99.90;;;;;;4992787;28;20562;-71
2024/01/27 02:35:53;;;;;;;844.00;793.60;;;1.60;99.90;;;;;;4984688;28;20951;-70
2024/01/27 02:38:19;;;;;;;838.60;788.80;;;1.60;99.90;;;;;;4992305;28;20460;-71
2024/01/27 02:40:46;;;;;;;849.87;798.40;;;1.60;99.90;;;;;;4985220;28;20834;-71
2024/01/27 02:43:14;;;;;;;844.53;794.33;;;1.70;99.90;;;;;;4992210;28;20528;-71
2024/01/27 02:45:41;;;;;;;827.63;778.50;;;1.70;99.90;;;;;;4992520;28;21070;-71
2024/01/27 02:48:08;;;;;;;809.67;761.47;;;1.70;99.90;;;;;;4992485;28;20974;-71
2024/01/27 02:50:35;;;;;;;816.90;768.70;;;1.70;99.90;;;;;;4992238;28;20466;-71
2024/01/27 02:53:02;;;;;;;813.57;766.07;;;1.70;99.90;;;;;;4992646;28;20482;-71
2024/01/27 02:55:28;;;;;;;817.97;770.47;;;1.70;99.90;;;;;;4992740;28;20458;-71
2024/01/27 02:57:55;;;;;;;832.07;783.67;;;1.70;99.90;;;;;;4992372;28;20451;-71
2024/01/27 03:00:23;;;;;;;826.20;778.97;;;1.60;99.90;;;;;;4992294;28;20847;-71
2024/01/27 03:02:50;;;;;;;821.70;774.30;;;1.60;99.90;;;;;;4992306;28;20533;-71
2024/01/27 03:05:17;;;;;;;824.73;776.93;;;1.60;99.90;;;;;;4992744;28;20505;-70
2024/01/27 03:07:44;;;;;;;823.90;775.90;;;1.60;99.90;;;;;;4992684;28;20547;-72
2024/01/27 03:10:11;;;;;;;830.33;783.13;;;1.60;99.90;;;;;;4992327;28;20455;-71
2024/01/27 03:12:37;;;;;;;837.37;788.97;;;1.60;99.90;;;;;;4992413;28;20727;-70
2024/01/27 03:15:05;;;;;;;844.43;795.63;;;1.60;99.90;;;;;;4974453;28;20468;-71
2024/01/27 03:17:33;;;;;;;840.23;791.00;;;1.60;99.90;;;;;;4978208;28;20939;-73
2024/01/27 03:20:00;;;;;;;842.43;793.87;;;1.50;99.90;;;;;;4990988;28;20457;-71
2024/01/27 03:22:27;;;;;;;828.00;780.30;;;1.60;99.90;;;;;;4985894;28;20485;-72
2024/01/27 03:24:55;;;;;;;819.97;771.70;;;1.50;99.90;;;;;;4992359;28;20461;-71
2024/01/27 03:27:21;;;;;;;809.07;761.27;;;1.60;99.90;;;;;;4992362;28;20456;-71
2024/01/27 03:29:48;;;;;;;801.90;754.17;;;1.70;99.90;;;;;;4992070;28;20747;-70
2024/01/27 03:32:15;;;;;;;813.10;765.00;;;1.70;99.90;;;;;;4991922;28;20474;-71
2024/01/27 03:34:45;;;;;;;802.27;755.53;;;1.70;99.90;;;;;;4977620;28;20457;-71
2024/01/27 03:37:12;;;;;;;788.20;742.80;;;1.70;99.90;;;;;;4975865;28;20497;-71
2024/01/27 03:39:41;;;;;;;779.30;736.30;;;1.60;99.90;;;;;;4985664;28;20454;-71
2024/01/27 03:42:08;;;;;;;777.03;733.87;;;1.60;99.90;;;;;;4972851;28;20484;-70
2024/01/27 03:44:35;;;;;;;779.30;735.40;;;1.60;99.90;;;;;;4972513;28;20451;-71
2024/01/27 03:47:02;;;;;;;795.13;750.13;;;1.70;99.90;;;;;;4972898;28;20484;-71
2024/01/27 03:49:29;;;;;;;793.43;748.43;;;1.50;99.90;;;;;;4972432;28;20948;-71
2024/01/27 03:51:57;;;;;;;816.47;768.17;;;1.40;99.90;;;;;;4976100;28;20973;-71
2024/01/27 03:54:23;;;;;;;831.00;782.00;;;1.30;99.90;;;;;;4976405;28;20450;-71
2024/01/27 03:56:50;;;;;;;832.23;783.03;;;1.30;99.90;;;;;;4976232;28;20490;-71
2024/01/27 03:59:17;;;;;;;840.47;790.20;;;1.30;99.90;;;;;;4983889;28;20462;-70
2024/01/27 04:01:44;;;;;;;851.00;798.43;;;1.20;99.90;;;;;;4983450;28;20947;-71
2024/01/27 04:04:11;;;;;;;871.43;817.47;;;1.10;99.90;;;;;;4995602;28;20516;-71
2024/01/27 04:06:38;;;;;;;862.23;809.30;;;1.20;99.90;;;;;;4995569;28;20487;-70
2024/01/27 04:09:08;;;;;;;876.10;822.00;;;1.10;99.90;;;;;;4985458;28;20998;-71
2024/01/27 04:11:35;;;;;;;888.60;833.90;;;1.00;99.90;;;;;;4976043;28;20459;-71
2024/01/27 04:14:02;;;;;;;903.40;847.50;;;1.00;99.90;;;;;;4975728;28;20493;-71
2024/01/27 04:16:29;;;;;;;915.00;857.17;;;0.90;99.90;;;;;;4980943;28;20459;-71
2024/01/27 04:18:55;;;;;;;907.13;850.47;;;1.00;99.90;;;;;;4986329;28;20961;-71
2024/01/27 04:21:22;;;;;;;902.30;846.43;;;0.90;99.90;;;;;;4975767;28;20459;-71
2024/01/27 04:23:49;;;;;;;880.93;824.93;;;0.80;99.90;;;;;;4983613;28;20481;-72
2024/01/27 04:26:17;;;;;;;887.73;829.37;;;0.80;99.90;;;;;;4991667;28;20497;-71
2024/01/27 04:28:45;;;;;;;894.03;834.90;;;0.80;99.90;;;;;;4975804;28;20829;-71
2024/01/27 04:31:11;;;;;;;898.20;838.57;;;0.80;99.90;;;;;;4986670;28;20495;-72
2024/01/27 04:33:39;;;;;;;895.00;836.70;;;0.80;99.90;;;;;;4995091;28;20480;-71
2024/01/27 04:36:08;;;;;;;895.87;836.97;;;0.70;99.90;;;;;;4985083;28;20504;-71
2024/01/27 04:38:35;;;;;;;927.57;865.40;;;0.60;99.90;;;;;;4980930;28;20872;-70
2024/01/27 04:41:02;;;;;;;930.63;870.67;;;0.60;99.90;;;;;;4985582;28;20464;-71
2024/01/27 04:43:30;;;;;;;930.33;871.27;;;0.60;99.90;;;;;;4988530;28;20479;-71
2024/01/27 04:45:57;;;;;;;931.30;870.40;;;0.60;99.90;;;;;;4994870;28;20489;-71
2024/01/27 04:48:24;;;;;;;933.47;871.30;;;0.60;99.90;;;;;;4994980;28;20450;-71
2024/01/27 04:50:51;;;;;;;939.97;877.50;;;0.70;99.90;;;;;;4994659;28;20918;-71
2024/01/27 04:53:17;;;;;;;919.20;857.70;;;0.70;99.90;;;;;;4990901;28;20479;-71
2024/01/27 04:55:44;;;;;;;921.40;859.92;;;0.70;99.90;;;;;;4982446;28;20454;-71
2024/01/27 04:58:11;;;;;;;923.03;861.83;;;0.70;99.90;;;;;;4994547;28;20208;-71
2024/01/27 05:00:39;;;;;;;924.43;863.97;;;0.80;99.90;;;;;;4979644;28;20462;-71
2024/01/27 05:03:08;;;;;;;917.20;857.47;;;0.80;99.90;;;;;;4985375;28;20856;-71
2024/01/27 05:05:35;;;;;;;915.17;856.60;;;0.80;99.90;;;;;;4994414;28;20453;-71
2024/01/27 05:08:01;;;;;;;916.67;859.07;;;1.00;99.90;;;;;;4985029;28;20560;-72
2024/01/27 05:10:28;;;;;;;894.33;838.57;;;0.90;99.90;;;;;;4974946;28;20460;-70
2024/01/27 05:12:56;;;;;;;891.17;836.07;;;0.90;99.90;;;;;;4991359;28;20478;-71
2024/01/27 05:15:22;;;;;;;872.67;819.97;;;0.90;99.90;;;;;;4979167;28;20467;-71
2024/01/27 05:17:51;;;;;;;873.53;820.67;;;0.90;99.90;;;;;;4994379;28;20450;-72
2024/01/27 05:20:18;;;;;;;867.60;815.20;;;0.70;99.90;;;;;;4994155;28;20967;-71
2024/01/27 05:22:45;;;;;;;842.20;791.57;;;0.80;99.90;;;;;;4994256;28;20510;-71
2024/01/27 05:25:12;;;;;;;846.37;794.57;;;0.80;99.90;;;;;;4986073;28;20454;-71
2024/01/27 05:27:39;;;;;;;843.03;791.07;;;0.90;99.90;;;;;;4994253;28;20483;-70
2024/01/27 05:30:07;;;;;;;840.13;788.93;;;0.90;99.90;;;;;;4985787;28;20459;-71
2024/01/27 05:32:34;;;;;;;843.20;792.50;;;0.90;99.90;;;;;;4993770;28;20480;-71
2024/01/27 05:35:03;;;;;;;833.40;783.17;;;0.90;99.90;;;;;;4993636;28;20481;-71
2024/01/27 05:37:30;;;;;;;828.20;779.67;;;0.90;99.90;;;;;;4993911;28;20456;-70
2024/01/27 05:39:56;;;;;;;831.00;781.20;;;0.90;99.90;;;;;;4985595;28;20463;-70
2024/01/27 05:42:23;;;;;;;823.53;774.47;;;0.90;99.90;;;;;;4993954;28;20480;-71
2024/01/27 05:44:50;;;;;;;821.37;772.83;;;0.90;99.90;;;;;;4993827;28;20498;-71
2024/01/27 05:47:17;;;;;;;813.00;763.83;;;0.90;99.90;;;;;;4993475;28;20498;-71
2024/01/27 05:49:44;;;;;;;817.80;768.20;;;0.90;99.90;;;;;;4993315;28;20954;-70
2024/01/27 05:52:12;;;;;;;817.63;768.00;;;0.90;99.90;;;;;;4977611;28;20485;-71
2024/01/27 05:54:41;;;;;;;820.73;770.53;;;0.90;99.90;;;;;;4993548;28;20474;-71
2024/01/27 05:57:08;;;;;;;824.97;775.40;;;0.90;99.90;;;;;;4993383;28;20447;-71
2024/01/27 05:59:34;;;;;;;811.10;761.97;;;0.90;99.90;;;;;;4985199;28;20492;-71
2024/01/27 06:02:02;;;;;;;837.77;787.57;;;0.90;99.90;;;;;;4984784;28;20455;-70
2024/01/27 06:04:29;;;;;;;830.10;780.20;;;0.90;99.90;;;;;;4993778;28;20454;-71
2024/01/27 06:06:56;;;;;;;807.57;759.00;;;0.90;99.90;;;;;;4993314;28;20236;-72
2024/01/27 06:09:24;;;;;;;812.17;763.67;;;0.90;99.90;;;;;;4993414;28;20843;-72
2024/01/27 06:11:51;;;;;;;782.73;736.23;;;0.90;99.90;;;;;;4993221;28;20458;-71
2024/01/27 06:14:18;;;;;;;787.93;741.27;;;0.90;99.90;;;;;;4984767;28;20468;-72
2024/01/27 06:16:44;;;;;;;771.80;725.57;;;0.90;99.90;;;;;;4992976;28;20468;-71
2024/01/27 06:19:11;;;;;;;750.60;706.47;;;0.90;99.90;;;;;;4991875;28;20458;-71
2024/01/27 06:21:38;;;;;;;746.47;702.27;;;0.90;99.90;;;;;;4992987;28;20454;-71
2024/01/27 06:24:05;;;;;;;735.33;691.57;;;0.80;99.90;;;;;;4976803;28;20818;-71
2024/01/27 06:26:33;;;;;;;753.87;707.37;;;0.80;99.90;;;;;;4993017;28;20501;-71
2024/01/27 06:29:02;;;;;;;755.37;708.83;;;0.80;99.90;;;;;;4975188;28;20455;-71
2024/01/27 06:31:29;;;;;;;752.75;707.42;;;0.80;99.90;;;;;;4973764;28;20467;-70
2024/01/27 06:33:56;;;;;;;727.17;681.27;;;0.80;99.90;;;;;;4973585;28;20255;-71
2024/01/27 06:36:24;;;;;;;772.77;724.27;;;0.70;99.90;;;;;;4977889;28;20457;-71
2024/01/27 06:38:51;;;;;;;783.70;735.70;;;0.80;99.90;;;;;;4992625;28;20454;-71
2024/01/27 06:41:18;;;;;;;793.10;743.90;;;0.80;99.90;;;;;;4985046;28;20516;-72
2024/01/27 06:43:46;;;;;;;773.77;726.73;;;0.80;99.90;;;;;;4992536;28;20474;-71
2024/01/27 06:46:13;;;;;;;765.93;718.87;;;0.70;99.90;;;;;;4992850;28;20457;-71
2024/01/27 06:48:39;;;;;;;771.07;723.87;;;0.80;99.90;;;;;;4992800;28;20512;-71
2024/01/27 06:51:07;;;;;;;765.93;718.53;;;0.80;99.90;;;;;;4984790;28;20464;-70
2024/01/27 06:53:33;;;;;;;785.63;736.87;;;0.80;99.90;;;;;;4992610;28;20578;-71
2024/01/27 06:56:00;;;;;;;761.43;714.67;;;0.80;99.90;;;;;;4992479;28;20458;-70
2024/01/27 06:58:27;;;;;;;765.60;718.87;;;0.80;99.90;;;;;;4992623;28;20468;-74
2024/01/27 07:00:55;;;;;;;776.47;728.53;;;0.70;99.90;;;;;;4992167;28;20479;-71
2024/01/27 07:03:22;;;;;;;772.20;725.27;;;0.80;99.90;;;;;;4988515;28;20480;-71
2024/01/27 07:05:49;;;;;;;765.53;719.47;;;0.90;99.90;;;;;;4972953;28;20821;-70
2024/01/27 07:08:16;;;;;;;732.37;689.60;;;0.90;99.90;;;;;;4971286;28;20575;-71
2024/01/27 07:10:43;;;;;;;681.50;641.70;;;0.90;99.90;;;;;;4972350;28;20459;-71
2024/01/27 07:13:09;;;;;;;679.37;639.30;;;0.90;99.90;;;;;;4991433;28;20470;-71
2024/01/27 07:15:37;;;;;;;661.88;622.28;;;0.90;99.90;;;;;;4986599;28;20527;-71
2024/01/27 07:18:07;;;;;;;623.13;587.87;;;0.80;99.90;;;;;;4990619;28;20201;-70
2024/01/27 07:20:34;;;;;;;642.77;605.67;;;0.60;99.90;;;;;;4991687;28;20493;-71
2024/01/27 07:23:01;;;;;;;648.43;611.27;;;0.60;99.90;;;;;;4992537;28;20525;-71
2024/01/27 07:25:29;;;;;;;685.67;645.10;;;0.50;99.90;;;;;;4982609;28;21006;-70
2024/01/27 07:27:56;;;;;;;703.33;660.97;;;0.60;99.90;;;;;;4985631;28;20510;-71
2024/01/27 07:30:23;;;;;;;697.73;653.93;;;0.60;99.90;;;;;;4996385;28;20481;-71
2024/01/27 07:32:49;;;;;;;704.23;661.37;;;0.70;99.90;;;;;;4996320;28;20477;-71
2024/01/27 07:35:18;;;;;;;722.83;679.23;;;0.70;99.90;;;;;;4993028;28;20462;-70
2024/01/27 07:37:44;;;;;;;691.43;648.97;;;0.70;99.90;;;;;;4992016;28;20450;-71
2024/01/27 07:40:12;;;;;;;652.13;611.90;;;0.70;99.90;;;;;;4996298;28;20505;-70
2024/01/27 07:42:40;;;;;;;635.00;596.10;;;0.60;99.90;;;;;;4996077;28;20482;-71
2024/01/27 07:45:08;;;;;;;625.50;587.43;;;0.50;99.90;;;;;;4985712;28;20464;-71
2024/01/27 07:47:35;;;;;;;648.80;609.63;;;0.50;99.90;;;;;;4977114;28;21028;-70
2024/01/27 07:50:02;;;;;;;654.47;614.47;;;0.50;99.90;;;;;;4976854;28;20458;-70
2024/01/27 07:52:30;;;;;;;704.23;659.83;;;0.50;99.90;;;;;;4989243;28;20485;-70
2024/01/27 07:54:57;;;;;;;698.33;655.17;;;0.50;99.90;;;;;;4986997;28;20462;-71
2024/01/27 07:57:25;;;;;;;715.27;670.20;;;0.50;99.90;;;;;;4977027;28;20477;-72
2024/01/27 07:59:51;;;;;;;713.37;667.03;;;0.50;99.90;;;;;;4992570;28;20464;-72
2024/01/27 08:02:18;;;;;;;718.87;671.77;;;0.60;99.90;;;;;;4995581;28;20466;-71
2024/01/27 08:04:46;;;;;;;704.13;657.37;;;0.70;99.90;;;;;;4993986;28;20517;-71
2024/01/27 08:07:14;;;;;;;702.13;654.87;;;0.70;99.90;;;;;;4982858;28;20573;-71
2024/01/27 08:09:42;;;;;;;714.37;666.77;;;0.70;99.90;;;;;;4990134;28;20459;-71
2024/01/27 08:12:09;;;;;;;734.00;686.13;;;0.80;99.90;;;;;;4976151;28;20502;-71
2024/01/27 08:14:36;;;;;;;742.37;693.20;;;0.80;99.90;;;;;;4989392;28;20467;-72
2024/01/27 08:17:04;;;;;;;784.23;733.10;;;0.90;99.90;;;;;;4994446;28;20450;-71
2024/01/27 08:19:31;;;;;;;800.07;747.77;;;1.00;99.90;;;;;;4993924;28;20459;-70
2024/01/27 08:21:58;;;;;;;791.73;740.57;;;1.20;99.90;;;;;;4994688;28;20463;-71
2024/01/27 08:24:25;;;;;;;761.27;711.20;;;1.20;99.90;;;;;;4994699;28;20464;-71
2024/01/27 08:26:53;;;;;;;776.30;725.50;;;1.20;99.90;;;;;;4995005;28;20481;-72
2024/01/27 08:29:20;;;;;;;763.50;711.60;;;1.30;99.90;;;;;;4994546;28;20540;-71
2024/01/27 08:31:47;;;;;;;757.53;708.37;;;1.40;99.90;;;;;;4978745;28;20842;-71
2024/01/27 08:34:14;;;;;;;756.90;707.50;;;1.40;99.90;;;;;;4974810;28;20464;-71
2024/01/27 08:36:40;;;;;;;759.47;710.53;;;1.50;99.90;;;;;;4981017;28;20459;-71
2024/01/27 08:39:08;;;;;;;755.87;708.73;;;1.50;99.90;;;;;;4994384;28;20463;-72
2024/01/27 08:41:36;;;;;;;721.80;676.07;;;1.50;99.90;;;;;;4986929;28;20643;-71
2024/01/27 08:44:04;;;;;;;737.40;690.93;;;1.60;99.90;;;;;;4994755;28;20480;-72
2024/01/27 08:46:31;;;;;;;732.33;686.17;;;1.60;99.90;;;;;;4994609;28;20544;-73
2024/01/27 08:48:58;;;;;;;713.78;669.70;;;1.60;99.90;;;;;;4993538;28;21024;-73
2024/01/27 08:51:25;;;;;;;715.57;675.30;;;1.70;99.90;;;;;;4994892;28;20673;-73
2024/01/27 08:53:52;;;;;;;718.27;678.77;;;1.80;99.90;;;;;;4994837;28;20478;-70
2024/01/27 08:56:18;;;;;;;728.83;688.13;;;1.90;99.90;;;;;;4995060;28;20466;-69
2024/01/27 08:58:47;;;;;;;722.27;681.97;;;1.90;99.90;;;;;;4979078;28;20511;-70
2024/01/27 09:01:17;;;;;;;714.17;674.37;;;1.90;99.90;;;;;;4974672;28;20466;-70
2024/01/27 09:03:43;;;;;;;735.47;692.87;;;2.00;99.90;;;;;;4990141;28;20566;-70
2024/01/27 09:06:10;;;;;;;736.53;693.03;;;2.10;99.90;;;;;;4988895;28;20447;-70
2024/01/27 09:08:37;;;;;;;714.70;673.33;;;2.10;99.90;;;;;;4990867;28;20843;-70
2024/01/27 09:11:04;;;;;;;709.03;670.07;;;2.30;99.90;;;;;;4993991;28;20468;-70
2024/01/27 09:13:31;;;;;;;717.83;677.57;;;2.30;99.90;;;;;;4993753;28;20489;-70
2024/01/27 09:15:58;;;;;;;694.07;654.67;;;2.50;99.90;;;;;;4977959;28;20540;-69
2024/01/27 09:18:31;;;;;;;662.15;626.58;;;2.60;99.90;;;;;;4988574;28;20448;-70
2024/01/27 09:20:58;;;;;;;651.00;617.27;;;2.60;99.90;;;;;;4993522;28;20202;-69
2024/01/27 09:23:25;;;;;;;627.70;596.53;;;2.80;99.90;;;;;;4993884;28;20477;-72
2024/01/27 09:25:52;;;;;;;602.95;573.10;;;2.90;99.90;;;;;;4993188;28;20448;-72
2024/01/27 09:28:19;;;;;;;547.20;522.40;;;3.20;99.90;;;;;;4992569;28;20207;-72
2024/01/27 09:30:46;;;;;;;484.47;462.17;;;3.20;99.90;;;;;;4988839;28;20954;-72
2024/01/27 09:33:13;;;;;;;444.50;426.03;;;3.30;99.90;;;;;;4991529;28;20470;-72
2024/01/27 09:35:41;;;;;;;446.13;428.13;;;3.50;99.90;;;;;;4987297;28;20454;-72
2024/01/27 09:38:09;;;;;;;420.87;402.33;;;3.50;99.90;;;;;;4984180;28;20460;-72
2024/01/27 09:40:36;;;;;;;418.07;400.57;;;3.70;99.90;;;;;;4992014;28;20909;-73
2024/01/27 09:43:02;;;;;;;408.90;392.97;;;3.80;99.90;;;;;;4977680;28;20940;-72
2024/01/27 09:45:30;;;;;;;366.87;352.13;;;4.00;99.90;;;;;;4993598;28;20496;-72
2024/01/27 09:47:59;;;;;;;294.83;283.67;;;4.10;99.90;;;;;;4991945;28;20573;-72
2024/01/27 09:50:25;;;;;;;235.00;226.03;;;4.10;99.90;;;;;;4986446;28;20453;-72
2024/01/27 09:52:54;;;;;;;228.93;219.33;;;4.20;99.90;;;;;;4993544;28;20482;-72
2024/01/27 09:55:21;;;;;;;241.17;231.90;;;4.10;99.90;;;;;;4993068;28;20454;-72
2024/01/27 09:57:48;;;;;;;214.83;206.23;;;4.20;99.90;;;;;;4986008;28;20455;-72
2024/01/27 10:00:17;;;;;;;165.53;158.77;;;4.20;99.90;;;;;;4973728;28;20843;-72
2024/01/27 10:02:46;;;;;;;137.07;130.47;;;4.30;99.90;;;;;;4984826;28;20470;-72
2024/01/27 10:05:14;;;;;;;120.10;114.37;;;4.50;99.90;;;;;;4987817;28;20916;-73
2024/01/27 10:07:42;;;;;;;111.67;106.63;;;4.60;99.90;;;;;;4992970;28;20581;-72
2024/01/27 10:10:10;;;;;;;80.97;77.07;;;4.70;99.90;;;;;;4974562;28;20463;-72
2024/01/27 10:12:41;;;;;;;33.80;31.53;;;4.80;99.90;;;;;;4979844;28;20478;-72
2024/01/27 10:15:19;;;;;;;22.83;18.63;;;4.90;99.90;;;;;;4992596;28;20462;-72
2024/01/27 10:17:46;;;;;;;23.33;12.80;;;5.10;99.90;;;;;;4985877;28;20942;-72
2024/01/27 10:20:15;;;;;;;16.57;9.13;;;5.20;99.90;;;;;;4988869;28;20468;-72
2024/01/27 10:22:42;;;;;;;13.80;6.30;;;5.30;99.90;;;;;;4993159;28;20480;-72
2024/01/27 10:25:11;;;;;;;20.97;5.83;;;5.60;99.90;;;;;;4990851;28;20458;-72
2024/01/27 10:27:38;;;;;;;15.30;5.90;;;5.40;99.90;;;;;;4973539;28;20486;-72
2024/01/27 10:30:07;;;;;;;16.23;5.80;;;5.50;99.90;;;;;;4989928;28;20481;-72
2024/01/27 10:32:34;;;;;;;18.10;5.43;;;5.60;99.90;;;;;;4992876;28;20481;-72
2024/01/27 10:35:04;;;;;;;9.90;4.40;;;5.80;99.90;;;;;;4983290;28;20455;-70
2024/01/27 10:37:31;;;;;;;11.53;4.00;;;5.90;99.90;;;;;;4973546;28;20451;-70
2024/01/27 10:40:02;;;;;;;13.93;3.87;;;6.10;99.90;;;;;;4981947;28;20457;-70
2024/01/27 10:42:32;;;;;;;8.37;3.63;;;6.20;99.90;;;;;;4992700;28;20929;-70
2024/01/27 10:45:00;;;;;;;23.07;3.90;;;6.20;99.90;;;;;;4992359;28;20462;-70
2024/01/27 10:47:29;;;;;;;17.57;3.60;;;6.10;99.90;;;;;;4992244;28;20476;-70
2024/01/27 10:49:57;;;;;;;8.77;3.73;;;6.20;99.90;;;;;;4992102;28;20453;-70
2024/01/27 10:52:28;;;;;;;15.80;4.00;;;6.40;99.90;;;;;;4977562;28;20864;-71
2024/01/27 10:54:59;;;;;;;15.60;4.90;;;6.60;99.90;;;;;;4984638;28;20459;-69
2024/01/27 10:57:27;;;;;;;22.53;4.73;;;6.70;99.90;;;;;;4992707;28;20511;-70
2024/01/27 10:59:57;;;;;;;13.23;4.60;;;6.70;99.90;;;;;;4982802;28;20958;-70
2024/01/27 11:02:24;;;;;;;15.77;3.97;;;6.60;99.90;;;;;;4991412;28;20999;-70
2024/01/27 11:04:53;;;;;;;18.27;4.37;;;6.50;99.90;;;;;;4992624;28;20450;-70
2024/01/27 11:07:21;;;;;;;11.20;4.40;;;6.30;99.90;;;;;;4992486;28;20457;-70
2024/01/27 11:09:50;;;;;;;12.40;4.43;;;6.30;99.90;;;;;;4977119;28;20446;-70
2024/01/27 11:12:18;;;;;;;10.90;4.13;;;6.30;99.90;;;;;;4980177;28;20564;-70
2024/01/27 11:14:45;;;;;;;12.80;3.70;;;6.30;99.90;;;;;;4993017;28;20462;-69
2024/01/27 11:17:13;;;;;;;17.40;6.30;;;6.40;99.90;;;;;;4983143;28;21267;-72
2024/01/27 11:19:41;;;;;;;19.97;5.17;;;6.50;99.90;;;;;;4991848;28;20446;-72
2024/01/27 11:22:08;;;;;;;13.60;3.80;;;6.60;99.90;;;;;;4992094;28;20977;-73
2024/01/27 11:24:35;;;;;;;15.30;4.67;;;6.70;99.90;;;;;;4991035;28;20458;-74
2024/01/27 11:27:02;;;;;;;13.63;5.20;;;6.80;99.90;;;;;;4983950;28;20454;-73
2024/01/27 11:29:31;;;;;;;17.43;5.10;;;6.80;99.90;;;;;;4990987;28;20526;-73
2024/01/27 11:32:00;;;;;;;16.80;4.50;;;6.90;99.90;;;;;;4991769;28;20498;-73
2024/01/27 11:34:29;;;;;;;16.63;4.23;;;7.00;99.90;;;;;;4992160;28;20199;-74
2024/01/27 11:36:56;;;;;;;11.67;3.60;;;7.20;99.90;;;;;;4992260;28;20460;-71
2024/01/27 11:39:28;;;;;;;16.50;4.17;;;7.10;99.90;;;;;;4991988;28;20481;-71
2024/01/27 11:42:05;;;;;;;9.37;3.70;;;7.20;99.90;;;;;;4991953;28;20536;-72
2024/01/27 11:44:32;;;;;;;14.17;4.17;;;7.20;99.90;;;;;;4989006;28;20456;-71
2024/01/27 11:46:59;;;;;;;11.87;3.70;;;7.90;99.90;;;;;;4992115;28;20460;-72
2024/01/27 11:49:26;;;;;;;17.73;5.10;;;8.80;97.60;;;;;;4991785;28;20493;-71
2024/01/27 11:51:54;;;;;;;18.20;5.40;;;9.70;97.90;;;;;;4991494;28;20450;-72
2024/01/27 11:54:21;;;;;;;14.77;4.63;;;10.40;91.10;;;;;;4984767;28;20821;-71
2024/01/27 11:56:48;;;;;;;13.70;4.50;;;10.90;89.40;;;;;;4992014;28;20946;-70
2024/01/27 11:59:15;;;;;;;11.70;4.53;;;10.90;77.80;;;;;;4991890;28;20828;-71
2024/01/27 12:01:42;;;;;;;20.53;4.20;;;11.70;78.50;;;;;;4990843;28;20465;-72
2024/01/27 12:04:10;;;;;;;13.97;3.93;;;12.90;79.60;;;;;;4989801;28;20446;-72
2024/01/27 12:06:38;;;;;;;11.10;3.67;;;13.10;55.40;;;;;;4990388;28;20454;-72
2024/01/27 12:09:11;;;;;;;11.20;3.63;;;13.60;47.20;;;;;;4990570;28;20442;-71
2024/01/27 12:11:40;;;;;;;17.00;4.27;;;14.20;42.20;;;;;;4986676;28;20541;-72
2024/01/27 12:14:07;;;;;;;13.87;3.93;;;14.60;44.90;;;;;;4977172;28;20482;-72
2024/01/27 12:16:34;;;;;;;19.20;4.77;;;15.00;39.70;;;;;;4994337;28;20844;-72
2024/01/27 12:19:01;;;;;;;13.13;4.03;;;15.50;31.10;;;;;;4993641;28;20509;-72
2024/01/27 12:21:28;;;;;;;16.27;3.83;;;15.90;31.40;;;;;;4981513;28;20462;-72
2024/01/27 12:23:56;;;;;;;16.27;3.97;;;16.30;24.40;;;;;;4991133;28;21024;-71